sensor_id;sensor_type;location;lat;lon;timestamp;temperature;humidity
30150;DHT22;16962;48.646;9.026;2022-09-02T00:01:47;12.50;1.00
30150;DHT22;16962;48.646;9.026;2022-09-02T00:04:37;12.40;1.00
30150;DHT22;16962;48.646;9.026;2022-09-02T00:07:25;12.30;1.00
30150;DHT22;16962;48.646;9.026;2022-09-02T00:10:25;12.20;1.00
30150;DHT22;16962;48.646;9.026;2022-09-02T00:13:15;12.00;1.00
30150;DHT22;16962;48.646;9.026;2022-09-02T00:16:05;11.90;16.30
30150;DHT22;16962;48.646;9.026;2022-09-02T00:18:55;11.90;93.40
30150;DHT22;16962;48.646;9.026;2022-09-02T00:21:43;11.80;99.90
30150;DHT22;16962;48.646;9.026;2022-09-02T00:24:34;11.60;99.90
30150;DHT22;16962;48.646;9.026;2022-09-02T00:27:25;11.50;99.90
30150;DHT22;16962;48.646;9.026;2022-09-02T00:30:12;11.40;99.90
30150;DHT22;16962;48.646;9.026;2022-09-02T00:33:04;11.30;99.90
30150;DHT22;16962;48.646;9.026;2022-09-02T00:35:52;11.20;99.90
30150;DHT22;16962;48.646;9.026;2022-09-02T00:38:41;11.10;99.90
30150;DHT22;16962;48.646;9.026;2022-09-02T00:41:29;11.10;99.90
30150;DHT22;16962;48.646;9.026;2022-09-02T00:44:18;11.20;99.90
30150;DHT22;16962;48.646;9.026;2022-09-02T00:47:08;11.10;99.90
30150;DHT22;16962;48.646;9.026;2022-09-02T00:49:55;11.10;1.00
30150;DHT22;16962;48.646;9.026;2022-09-02T00:52:47;11.00;1.00
30150;DHT22;16962;48.646;9.026;2022-09-02T00:55:45;10.90;1.00
30150;DHT22;16962;48.646;9.026;2022-09-02T00:58:34;11.00;1.00
30150;DHT22;16962;48.646;9.026;2022-09-02T01:01:23;11.10;18.10
30150;DHT22;16962;48.646;9.026;2022-09-02T01:04:11;11.30;31.10
30150;DHT22;16962;48.646;9.026;2022-09-02T01:06:58;11.30;4.40
30150;DHT22;16962;48.646;9.026;2022-09-02T01:09:46;11.30;1.00
30150;DHT22;16962;48.646;9.026;2022-09-02T01:12:36;11.20;1.00
30150;DHT22;16962;48.646;9.026;2022-09-02T01:15:25;11.00;1.00
30150;DHT22;16962;48.646;9.026;2022-09-02T01:18:16;11.00;1.00
30150;DHT22;16962;48.646;9.026;2022-09-02T01:21:06;11.00;1.00
30150;DHT22;16962;48.646;9.026;2022-09-02T01:23:54;10.90;1.00
30150;DHT22;16962;48.646;9.026;2022-09-02T01:26:42;10.90;1.00
30150;DHT22;16962;48.646;9.026;2022-09-02T01:29:29;10.80;1.00
30150;DHT22;16962;48.646;9.026;2022-09-02T01:32:18;10.70;1.00
30150;DHT22;16962;48.646;9.026;2022-09-02T01:35:09;10.60;1.00
30150;DHT22;16962;48.646;9.026;2022-09-02T01:37:58;10.60;39.60
30150;DHT22;16962;48.646;9.026;2022-09-02T01:40:48;10.50;93.20
30150;DHT22;16962;48.646;9.026;2022-09-02T01:43:35;10.50;99.90
30150;DHT22;16962;48.646;9.026;2022-09-02T01:46:26;10.40;99.90
30150;DHT22;16962;48.646;9.026;2022-09-02T01:49:13;10.30;99.90
30150;DHT22;16962;48.646;9.026;2022-09-02T01:52:00;10.30;99.90
30150;DHT22;16962;48.646;9.026;2022-09-02T01:54:50;10.30;99.90
30150;DHT22;16962;48.646;9.026;2022-09-02T01:57:38;10.40;99.90
30150;DHT22;16962;48.646;9.026;2022-09-02T02:00:25;10.60;1.00
30150;DHT22;16962;48.646;9.026;2022-09-02T02:03:15;10.80;1.00
30150;DHT22;16962;48.646;9.026;2022-09-02T02:06:11;10.90;1.00
30150;DHT22;16962;48.646;9.026;2022-09-02T02:08:58;10.80;1.00
30150;DHT22;16962;48.646;9.026;2022-09-02T02:11:47;10.80;1.00
30150;DHT22;16962;48.646;9.026;2022-09-02T02:14:35;10.90;1.00
30150;DHT22;16962;48.646;9.026;2022-09-02T02:17:25;10.90;99.90
30150;DHT22;16962;48.646;9.026;2022-09-02T02:20:13;10.90;99.90
30150;DHT22;16962;48.646;9.026;2022-09-02T02:23:05;10.90;99.90
30150;DHT22;16962;48.646;9.026;2022-09-02T02:25:52;10.90;99.90
30150;DHT22;16962;48.646;9.026;2022-09-02T02:28:44;10.70;99.90
30150;DHT22;16962;48.646;9.026;2022-09-02T02:31:32;10.60;99.90
30150;DHT22;16962;48.646;9.026;2022-09-02T02:34:19;10.70;99.90
30150;DHT22;16962;48.646;9.026;2022-09-02T02:37:06;10.70;99.90
30150;DHT22;16962;48.646;9.026;2022-09-02T02:39:54;10.70;99.90
30150;DHT22;16962;48.646;9.026;2022-09-02T02:42:42;10.60;99.90
30150;DHT22;16962;48.646;9.026;2022-09-02T02:45:30;10.50;99.90
30150;DHT22;16962;48.646;9.026;2022-09-02T02:48:18;10.50;99.90
30150;DHT22;16962;48.646;9.026;2022-09-02T02:51:06;10.40;99.90
30150;DHT22;16962;48.646;9.026;2022-09-02T02:53:54;10.40;99.90
30150;DHT22;16962;48.646;9.026;2022-09-02T02:56:47;10.30;99.90
30150;DHT22;16962;48.646;9.026;2022-09-02T02:59:37;10.30;99.90
30150;DHT22;16962;48.646;9.026;2022-09-02T03:02:24;10.30;99.90
30150;DHT22;16962;48.646;9.026;2022-09-02T03:05:13;10.20;99.90
30150;DHT22;16962;48.646;9.026;2022-09-02T03:08:09;10.30;99.90
30150;DHT22;16962;48.646;9.026;2022-09-02T03:10:56;10.30;99.90
30150;DHT22;16962;48.646;9.026;2022-09-02T03:13:43;10.10;99.90
30150;DHT22;16962;48.646;9.026;2022-09-02T03:16:35;10.00;99.90
30150;DHT22;16962;48.646;9.026;2022-09-02T03:19:22;9.90;99.90
30150;DHT22;16962;48.646;9.026;2022-09-02T03:22:12;9.80;99.90
30150;DHT22;16962;48.646;9.026;2022-09-02T03:24:59;9.70;99.90
30150;DHT22;16962;48.646;9.026;2022-09-02T03:27:47;9.60;99.90
30150;DHT22;16962;48.646;9.026;2022-09-02T03:30:35;9.60;1.00
30150;DHT22;16962;48.646;9.026;2022-09-02T03:33:24;9.50;1.00
30150;DHT22;16962;48.646;9.026;2022-09-02T03:36:39;9.50;1.00
30150;DHT22;16962;48.646;9.026;2022-09-02T03:39:29;9.50;52.90
30150;DHT22;16962;48.646;9.026;2022-09-02T03:42:16;9.50;99.90
30150;DHT22;16962;48.646;9.026;2022-09-02T03:45:07;9.50;99.90
30150;DHT22;16962;48.646;9.026;2022-09-02T03:47:57;9.40;99.90
30150;DHT22;16962;48.646;9.026;2022-09-02T03:50:45;9.30;99.90
30150;DHT22;16962;48.646;9.026;2022-09-02T03:53:35;9.30;99.90
30150;DHT22;16962;48.646;9.026;2022-09-02T03:56:25;9.20;99.90
30150;DHT22;16962;48.646;9.026;2022-09-02T03:59:12;9.20;1.00
30150;DHT22;16962;48.646;9.026;2022-09-02T04:06:12;9.10;22.60
30150;DHT22;16962;48.646;9.026;2022-09-02T04:09:00;9.00;99.90
30150;DHT22;16962;48.646;9.026;2022-09-02T04:11:47;9.00;99.90
30150;DHT22;16962;48.646;9.026;2022-09-02T04:14:35;8.90;99.90
30150;DHT22;16962;48.646;9.026;2022-09-02T04:21:09;8.90;99.90
30150;DHT22;16962;48.646;9.026;2022-09-02T04:23:57;8.90;99.90
30150;DHT22;16962;48.646;9.026;2022-09-02T04:26:49;8.90;99.90
30150;DHT22;16962;48.646;9.026;2022-09-02T04:29:39;9.10;15.20
30150;DHT22;16962;48.646;9.026;2022-09-02T04:32:26;9.10;99.90
30150;DHT22;16962;48.646;9.026;2022-09-02T04:35:13;9.10;1.00
30150;DHT22;16962;48.646;9.026;2022-09-02T04:38:01;9.00;1.00
30150;DHT22;16962;48.646;9.026;2022-09-02T04:40:50;9.00;8.20
30150;DHT22;16962;48.646;9.026;2022-09-02T04:43:38;9.00;99.90
30150;DHT22;16962;48.646;9.026;2022-09-02T04:46:25;9.10;99.90
30150;DHT22;16962;48.646;9.026;2022-09-02T04:49:20;9.10;99.90
30150;DHT22;16962;48.646;9.026;2022-09-02T04:52:10;9.00;99.90
30150;DHT22;16962;48.646;9.026;2022-09-02T04:55:02;9.10;1.00
30150;DHT22;16962;48.646;9.026;2022-09-02T04:57:50;9.10;99.90
30150;DHT22;16962;48.646;9.026;2022-09-02T05:00:38;9.20;99.90
30150;DHT22;16962;48.646;9.026;2022-09-02T05:03:29;9.40;1.00
30150;DHT22;16962;48.646;9.026;2022-09-02T05:06:21;9.50;99.90
30150;DHT22;16962;48.646;9.026;2022-09-02T05:09:08;9.50;99.90
30150;DHT22;16962;48.646;9.026;2022-09-02T05:11:57;9.60;99.90
30150;DHT22;16962;48.646;9.026;2022-09-02T05:14:44;9.50;99.90
30150;DHT22;16962;48.646;9.026;2022-09-02T05:17:31;9.50;1.00
30150;DHT22;16962;48.646;9.026;2022-09-02T05:20:21;9.60;99.90
30150;DHT22;16962;48.646;9.026;2022-09-02T05:23:21;9.70;99.90
30150;DHT22;16962;48.646;9.026;2022-09-02T05:26:10;9.80;99.90
30150;DHT22;16962;48.646;9.026;2022-09-02T05:28:59;9.90;1.00
30150;DHT22;16962;48.646;9.026;2022-09-02T05:31:48;10.00;99.90
30150;DHT22;16962;48.646;9.026;2022-09-02T05:34:35;10.20;1.00
30150;DHT22;16962;48.646;9.026;2022-09-02T05:37:23;10.30;99.90
30150;DHT22;16962;48.646;9.026;2022-09-02T05:40:13;10.40;1.00
30150;DHT22;16962;48.646;9.026;2022-09-02T05:43:11;10.50;99.90
30150;DHT22;16962;48.646;9.026;2022-09-02T05:46:04;10.60;99.90
30150;DHT22;16962;48.646;9.026;2022-09-02T05:49:01;10.60;52.50
30150;DHT22;16962;48.646;9.026;2022-09-02T05:52:23;10.80;1.00
30150;DHT22;16962;48.646;9.026;2022-09-02T05:55:10;10.80;99.90
30150;DHT22;16962;48.646;9.026;2022-09-02T05:58:00;10.90;99.90
30150;DHT22;16962;48.646;9.026;2022-09-02T06:00:47;11.00;99.90
30150;DHT22;16962;48.646;9.026;2022-09-02T06:03:36;11.10;4.90
30150;DHT22;16962;48.646;9.026;2022-09-02T06:06:27;11.10;1.00
30150;DHT22;16962;48.646;9.026;2022-09-02T06:09:17;11.20;1.00
30150;DHT22;16962;48.646;9.026;2022-09-02T06:12:07;11.40;99.90
30150;DHT22;16962;48.646;9.026;2022-09-02T06:14:57;11.50;99.90
30150;DHT22;16962;48.646;9.026;2022-09-02T06:17:44;11.60;99.90
30150;DHT22;16962;48.646;9.026;2022-09-02T06:20:31;11.70;99.90
30150;DHT22;16962;48.646;9.026;2022-09-02T06:23:19;11.80;99.90
30150;DHT22;16962;48.646;9.026;2022-09-02T06:26:08;11.90;47.50
30150;DHT22;16962;48.646;9.026;2022-09-02T06:28:56;12.00;13.20
30150;DHT22;16962;48.646;9.026;2022-09-02T06:31:46;12.20;1.00
30150;DHT22;16962;48.646;9.026;2022-09-02T06:34:35;12.30;1.00
30150;DHT22;16962;48.646;9.026;2022-09-02T06:37:25;12.40;1.00
30150;DHT22;16962;48.646;9.026;2022-09-02T06:40:13;12.40;1.00
30150;DHT22;16962;48.646;9.026;2022-09-02T06:43:01;12.60;1.00
30150;DHT22;16962;48.646;9.026;2022-09-02T06:45:48;12.80;1.00
30150;DHT22;16962;48.646;9.026;2022-09-02T06:48:36;13.10;1.00
30150;DHT22;16962;48.646;9.026;2022-09-02T06:51:31;13.30;1.00
30150;DHT22;16962;48.646;9.026;2022-09-02T06:54:21;13.50;99.90
30150;DHT22;16962;48.646;9.026;2022-09-02T06:57:12;13.50;99.90
30150;DHT22;16962;48.646;9.026;2022-09-02T07:00:01;13.80;99.90
30150;DHT22;16962;48.646;9.026;2022-09-02T07:02:49;14.00;99.90
30150;DHT22;16962;48.646;9.026;2022-09-02T07:08:50;14.60;99.90
30150;DHT22;16962;48.646;9.026;2022-09-02T07:11:37;14.80;99.90
30150;DHT22;16962;48.646;9.026;2022-09-02T07:14:27;15.10;99.90
30150;DHT22;16962;48.646;9.026;2022-09-02T07:17:15;15.10;99.90
30150;DHT22;16962;48.646;9.026;2022-09-02T07:20:08;15.30;99.90
30150;DHT22;16962;48.646;9.026;2022-09-02T07:22:55;15.50;99.90
30150;DHT22;16962;48.646;9.026;2022-09-02T07:25:43;15.50;99.90
30150;DHT22;16962;48.646;9.026;2022-09-02T07:28:30;15.60;99.90
30150;DHT22;16962;48.646;9.026;2022-09-02T07:31:17;15.70;99.90
30150;DHT22;16962;48.646;9.026;2022-09-02T07:34:06;15.90;99.90
30150;DHT22;16962;48.646;9.026;2022-09-02T07:36:54;15.80;99.90
30150;DHT22;16962;48.646;9.026;2022-09-02T07:39:48;15.80;99.90
30150;DHT22;16962;48.646;9.026;2022-09-02T07:42:36;16.00;99.90
30150;DHT22;16962;48.646;9.026;2022-09-02T07:45:23;16.30;99.90
30150;DHT22;16962;48.646;9.026;2022-09-02T07:48:10;16.60;99.90
30150;DHT22;16962;48.646;9.026;2022-09-02T07:50:58;16.90;99.90
30150;DHT22;16962;48.646;9.026;2022-09-02T07:53:45;16.90;99.90
30150;DHT22;16962;48.646;9.026;2022-09-02T07:56:33;17.10;99.90
30150;DHT22;16962;48.646;9.026;2022-09-02T07:59:20;17.30;99.90
30150;DHT22;16962;48.646;9.026;2022-09-02T08:02:08;17.40;99.90
30150;DHT22;16962;48.646;9.026;2022-09-02T08:04:58;17.80;99.90
30150;DHT22;16962;48.646;9.026;2022-09-02T08:07:49;18.10;99.90
30150;DHT22;16962;48.646;9.026;2022-09-02T08:10:37;18.30;89.10
30150;DHT22;16962;48.646;9.026;2022-09-02T08:13:26;18.90;81.50
30150;DHT22;16962;48.646;9.026;2022-09-02T08:16:14;19.90;55.10
30150;DHT22;16962;48.646;9.026;2022-09-02T08:19:02;20.70;38.20
30150;DHT22;16962;48.646;9.026;2022-09-02T08:21:50;21.10;15.20
30150;DHT22;16962;48.646;9.026;2022-09-02T08:24:37;21.40;12.60
30150;DHT22;16962;48.646;9.026;2022-09-02T08:27:26;21.50;1.00
30150;DHT22;16962;48.646;9.026;2022-09-02T08:30:18;21.30;1.00
30150;DHT22;16962;48.646;9.026;2022-09-02T08:33:05;21.60;1.00
30150;DHT22;16962;48.646;9.026;2022-09-02T08:35:55;21.90;1.00
30150;DHT22;16962;48.646;9.026;2022-09-02T08:38:44;22.10;1.00
30150;DHT22;16962;48.646;9.026;2022-09-02T08:44:52;21.80;1.00
30150;DHT22;16962;48.646;9.026;2022-09-02T08:47:49;22.50;1.00
30150;DHT22;16962;48.646;9.026;2022-09-02T08:50:41;23.40;1.00
30150;DHT22;16962;48.646;9.026;2022-09-02T08:53:48;24.00;1.00
30150;DHT22;16962;48.646;9.026;2022-09-02T08:56:37;23.90;1.00
30150;DHT22;16962;48.646;9.026;2022-09-02T08:59:26;23.90;1.00
30150;DHT22;16962;48.646;9.026;2022-09-02T09:02:37;24.30;1.00
30150;DHT22;16962;48.646;9.026;2022-09-02T09:06:18;24.10;1.00
30150;DHT22;16962;48.646;9.026;2022-09-02T09:11:57;23.80;1.00
30150;DHT22;16962;48.646;9.026;2022-09-02T09:17:58;23.70;1.00
30150;DHT22;16962;48.646;9.026;2022-09-02T09:20:48;23.90;1.00
30150;DHT22;16962;48.646;9.026;2022-09-02T09:23:39;23.90;1.00
30150;DHT22;16962;48.646;9.026;2022-09-02T09:26:28;24.70;1.00
30150;DHT22;16962;48.646;9.026;2022-09-02T09:29:18;24.30;1.00
30150;DHT22;16962;48.646;9.026;2022-09-02T09:32:16;24.70;1.00
30150;DHT22;16962;48.646;9.026;2022-09-02T09:35:11;25.20;1.00
30150;DHT22;16962;48.646;9.026;2022-09-02T09:38:11;25.50;1.00
30150;DHT22;16962;48.646;9.026;2022-09-02T09:44:01;25.10;1.00
30150;DHT22;16962;48.646;9.026;2022-09-02T09:46:59;24.80;1.00
30150;DHT22;16962;48.646;9.026;2022-09-02T09:50:11;25.60;1.00
30150;DHT22;16962;48.646;9.026;2022-09-02T09:59:04;27.70;1.00
30150;DHT22;16962;48.646;9.026;2022-09-02T10:01:52;27.00;1.00
30150;DHT22;16962;48.646;9.026;2022-09-02T10:04:39;26.20;1.00
30150;DHT22;16962;48.646;9.026;2022-09-02T10:07:38;26.30;1.00
30150;DHT22;16962;48.646;9.026;2022-09-02T10:10:27;26.90;1.00
30150;DHT22;16962;48.646;9.026;2022-09-02T10:13:35;27.20;1.00
30150;DHT22;16962;48.646;9.026;2022-09-02T10:25:41;26.50;1.00
30150;DHT22;16962;48.646;9.026;2022-09-02T10:41:05;27.10;1.00
30150;DHT22;16962;48.646;9.026;2022-09-02T10:44:42;27.60;1.00
30150;DHT22;16962;48.646;9.026;2022-09-02T10:47:37;28.20;1.00
30150;DHT22;16962;48.646;9.026;2022-09-02T10:50:48;27.50;1.00
30150;DHT22;16962;48.646;9.026;2022-09-02T10:53:54;28.30;1.00
30150;DHT22;16962;48.646;9.026;2022-09-02T10:56:58;28.20;1.00
30150;DHT22;16962;48.646;9.026;2022-09-02T11:00:12;28.60;1.00
30150;DHT22;16962;48.646;9.026;2022-09-02T11:06:06;28.60;1.00
30150;DHT22;16962;48.646;9.026;2022-09-02T11:09:01;27.60;1.00
30150;DHT22;16962;48.646;9.026;2022-09-02T11:27:47;28.00;1.00
30150;DHT22;16962;48.646;9.026;2022-09-02T11:30:50;28.50;1.00
30150;DHT22;16962;48.646;9.026;2022-09-02T11:34:01;28.50;1.00
30150;DHT22;16962;48.646;9.026;2022-09-02T11:36:49;29.00;1.00
30150;DHT22;16962;48.646;9.026;2022-09-02T11:39:47;29.30;1.00
30150;DHT22;16962;48.646;9.026;2022-09-02T11:55:27;29.50;1.00
30150;DHT22;16962;48.646;9.026;2022-09-02T12:01:33;29.50;1.00
30150;DHT22;16962;48.646;9.026;2022-09-02T12:04:29;29.90;1.00
30150;DHT22;16962;48.646;9.026;2022-09-02T12:07:48;30.30;1.00
30150;DHT22;16962;48.646;9.026;2022-09-02T12:10:57;29.80;1.00
30150;DHT22;16962;48.646;9.026;2022-09-02T12:13:45;29.20;1.00
30150;DHT22;16962;48.646;9.026;2022-09-02T12:16:39;29.90;1.00
30150;DHT22;16962;48.646;9.026;2022-09-02T12:19:31;30.60;1.00
30150;DHT22;16962;48.646;9.026;2022-09-02T12:22:32;31.00;1.00
30150;DHT22;16962;48.646;9.026;2022-09-02T12:28:16;31.90;1.00
30150;DHT22;16962;48.646;9.026;2022-09-02T12:31:10;31.70;1.00
30150;DHT22;16962;48.646;9.026;2022-09-02T12:33:58;30.80;1.00
30150;DHT22;16962;48.646;9.026;2022-09-02T12:37:01;30.20;1.00
30150;DHT22;16962;48.646;9.026;2022-09-02T12:39:52;31.40;1.00
30150;DHT22;16962;48.646;9.026;2022-09-02T12:42:43;32.00;1.00
30150;DHT22;16962;48.646;9.026;2022-09-02T12:45:40;30.30;1.00
30150;DHT22;16962;48.646;9.026;2022-09-02T12:48:39;29.90;1.00
30150;DHT22;16962;48.646;9.026;2022-09-02T12:52:05;30.80;1.00
30150;DHT22;16962;48.646;9.026;2022-09-02T12:54:55;31.10;1.00
30150;DHT22;16962;48.646;9.026;2022-09-02T12:57:44;30.90;1.00
30150;DHT22;16962;48.646;9.026;2022-09-02T13:04:04;30.70;1.00
30150;DHT22;16962;48.646;9.026;2022-09-02T13:16:46;32.20;1.00
30150;DHT22;16962;48.646;9.026;2022-09-02T13:33:07;30.60;1.00
30150;DHT22;16962;48.646;9.026;2022-09-02T13:35:59;31.40;1.00
30150;DHT22;16962;48.646;9.026;2022-09-02T13:38:46;31.30;1.00
30150;DHT22;16962;48.646;9.026;2022-09-02T13:41:35;30.40;1.00
30150;DHT22;16962;48.646;9.026;2022-09-02T13:44:25;30.80;1.00
30150;DHT22;16962;48.646;9.026;2022-09-02T13:47:16;30.20;1.00
30150;DHT22;16962;48.646;9.026;2022-09-02T13:50:07;30.90;1.00
30150;DHT22;16962;48.646;9.026;2022-09-02T13:52:58;31.60;1.00
30150;DHT22;16962;48.646;9.026;2022-09-02T13:56:08;31.60;1.00
30150;DHT22;16962;48.646;9.026;2022-09-02T13:58:58;32.70;1.00
30150;DHT22;16962;48.646;9.026;2022-09-02T14:01:45;32.00;1.00
30150;DHT22;16962;48.646;9.026;2022-09-02T14:04:33;31.70;1.00
30150;DHT22;16962;48.646;9.026;2022-09-02T14:07:32;30.70;1.00
30150;DHT22;16962;48.646;9.026;2022-09-02T14:10:24;31.40;1.00
30150;DHT22;16962;48.646;9.026;2022-09-02T14:13:19;32.00;1.00
30150;DHT22;16962;48.646;9.026;2022-09-02T14:16:26;32.10;1.00
30150;DHT22;16962;48.646;9.026;2022-09-02T14:22:22;31.60;1.00
30150;DHT22;16962;48.646;9.026;2022-09-02T14:25:16;31.40;1.00
30150;DHT22;16962;48.646;9.026;2022-09-02T14:28:19;31.30;1.00
30150;DHT22;16962;48.646;9.026;2022-09-02T14:31:07;31.10;1.00
30150;DHT22;16962;48.646;9.026;2022-09-02T14:34:31;30.80;1.00
30150;DHT22;16962;48.646;9.026;2022-09-02T14:37:27;30.70;1.00
30150;DHT22;16962;48.646;9.026;2022-09-02T14:40:17;31.00;1.00
30150;DHT22;16962;48.646;9.026;2022-09-02T14:43:16;31.30;1.00
30150;DHT22;16962;48.646;9.026;2022-09-02T14:46:05;32.00;1.00
30150;DHT22;16962;48.646;9.026;2022-09-02T14:51:46;32.20;1.00
30150;DHT22;16962;48.646;9.026;2022-09-02T14:54:46;30.90;1.00
30150;DHT22;16962;48.646;9.026;2022-09-02T14:57:35;30.10;1.00
30150;DHT22;16962;48.646;9.026;2022-09-02T15:00:24;29.70;1.00
30150;DHT22;16962;48.646;9.026;2022-09-02T15:03:13;29.60;1.00
30150;DHT22;16962;48.646;9.026;2022-09-02T15:06:02;29.30;1.00
30150;DHT22;16962;48.646;9.026;2022-09-02T15:08:51;30.10;1.00
30150;DHT22;16962;48.646;9.026;2022-09-02T15:11:45;30.30;1.00
30150;DHT22;16962;48.646;9.026;2022-09-02T15:14:33;29.20;1.00
30150;DHT22;16962;48.646;9.026;2022-09-02T15:17:22;28.90;1.00
30150;DHT22;16962;48.646;9.026;2022-09-02T15:20:09;28.40;1.00
30150;DHT22;16962;48.646;9.026;2022-09-02T15:22:57;28.80;1.00
30150;DHT22;16962;48.646;9.026;2022-09-02T15:25:45;29.50;1.00
30150;DHT22;16962;48.646;9.026;2022-09-02T15:28:32;30.00;1.00
30150;DHT22;16962;48.646;9.026;2022-09-02T15:31:19;29.80;1.00
30150;DHT22;16962;48.646;9.026;2022-09-02T15:34:09;29.40;1.00
30150;DHT22;16962;48.646;9.026;2022-09-02T15:36:56;29.20;1.00
30150;DHT22;16962;48.646;9.026;2022-09-02T15:39:43;27.70;1.00
30150;DHT22;16962;48.646;9.026;2022-09-02T15:42:35;26.60;1.00
30150;DHT22;16962;48.646;9.026;2022-09-02T15:45:22;26.30;1.00
30150;DHT22;16962;48.646;9.026;2022-09-02T15:48:12;26.30;1.00
30150;DHT22;16962;48.646;9.026;2022-09-02T15:51:09;26.50;1.00
30150;DHT22;16962;48.646;9.026;2022-09-02T15:54:00;25.40;1.00
30150;DHT22;16962;48.646;9.026;2022-09-02T15:56:55;24.90;1.00
30150;DHT22;16962;48.646;9.026;2022-09-02T15:59:43;24.50;1.00
30150;DHT22;16962;48.646;9.026;2022-09-02T16:02:33;24.50;1.00
30150;DHT22;16962;48.646;9.026;2022-09-02T16:05:21;24.40;1.00
30150;DHT22;16962;48.646;9.026;2022-09-02T16:08:12;23.80;1.00
30150;DHT22;16962;48.646;9.026;2022-09-02T16:11:04;23.20;1.00
30150;DHT22;16962;48.646;9.026;2022-09-02T16:13:55;22.80;1.00
30150;DHT22;16962;48.646;9.026;2022-09-02T16:16:42;22.60;1.00
30150;DHT22;16962;48.646;9.026;2022-09-02T16:19:31;22.50;1.00
30150;DHT22;16962;48.646;9.026;2022-09-02T16:22:18;22.40;1.00
30150;DHT22;16962;48.646;9.026;2022-09-02T16:25:10;22.20;1.00
30150;DHT22;16962;48.646;9.026;2022-09-02T16:27:57;22.10;1.00
30150;DHT22;16962;48.646;9.026;2022-09-02T16:30:45;21.90;1.00
30150;DHT22;16962;48.646;9.026;2022-09-02T16:33:33;21.90;1.00
30150;DHT22;16962;48.646;9.026;2022-09-02T16:36:22;22.00;1.00
30150;DHT22;16962;48.646;9.026;2022-09-02T16:39:19;22.20;1.00
30150;DHT22;16962;48.646;9.026;2022-09-02T16:42:09;22.20;1.00
30150;DHT22;16962;48.646;9.026;2022-09-02T16:44:56;22.10;1.00
30150;DHT22;16962;48.646;9.026;2022-09-02T16:47:44;21.90;1.00
30150;DHT22;16962;48.646;9.026;2022-09-02T16:50:31;21.70;1.00
30150;DHT22;16962;48.646;9.026;2022-09-02T16:53:18;21.50;1.00
30150;DHT22;16962;48.646;9.026;2022-09-02T16:56:15;21.40;1.00
30150;DHT22;16962;48.646;9.026;2022-09-02T16:59:08;21.30;1.00
30150;DHT22;16962;48.646;9.026;2022-09-02T17:01:56;21.10;1.00
30150;DHT22;16962;48.646;9.026;2022-09-02T17:04:46;21.00;1.00
30150;DHT22;16962;48.646;9.026;2022-09-02T17:07:33;20.80;1.00
30150;DHT22;16962;48.646;9.026;2022-09-02T17:10:20;20.70;1.00
30150;DHT22;16962;48.646;9.026;2022-09-02T17:13:10;20.60;1.00
30150;DHT22;16962;48.646;9.026;2022-09-02T17:15:57;20.50;1.00
30150;DHT22;16962;48.646;9.026;2022-09-02T17:18:44;20.40;1.00
30150;DHT22;16962;48.646;9.026;2022-09-02T17:21:40;20.30;1.00
30150;DHT22;16962;48.646;9.026;2022-09-02T17:24:28;20.20;1.00
30150;DHT22;16962;48.646;9.026;2022-09-02T17:27:19;20.10;1.00
30150;DHT22;16962;48.646;9.026;2022-09-02T17:30:07;20.00;1.00
30150;DHT22;16962;48.646;9.026;2022-09-02T17:32:58;19.90;1.00
30150;DHT22;16962;48.646;9.026;2022-09-02T17:35:59;19.80;1.00
30150;DHT22;16962;48.646;9.026;2022-09-02T17:38:59;19.80;1.00
30150;DHT22;16962;48.646;9.026;2022-09-02T17:41:47;19.60;1.00
30150;DHT22;16962;48.646;9.026;2022-09-02T17:44:46;19.60;1.00
30150;DHT22;16962;48.646;9.026;2022-09-02T17:47:34;19.50;1.00
30150;DHT22;16962;48.646;9.026;2022-09-02T17:50:22;19.40;1.00
30150;DHT22;16962;48.646;9.026;2022-09-02T17:53:09;19.30;1.00
30150;DHT22;16962;48.646;9.026;2022-09-02T18:11:13;18.70;1.00
30150;DHT22;16962;48.646;9.026;2022-09-02T18:14:14;18.60;1.00
30150;DHT22;16962;48.646;9.026;2022-09-02T18:33:43;17.80;1.00
30150;DHT22;16962;48.646;9.026;2022-09-02T18:43:06;17.70;1.00
30150;DHT22;16962;48.646;9.026;2022-09-02T18:45:58;17.70;1.00
30150;DHT22;16962;48.646;9.026;2022-09-02T18:48:49;17.60;1.00
30150;DHT22;16962;48.646;9.026;2022-09-02T18:51:41;17.50;1.00
30150;DHT22;16962;48.646;9.026;2022-09-02T18:54:44;17.50;1.00
30150;DHT22;16962;48.646;9.026;2022-09-02T18:57:40;17.50;1.00
30150;DHT22;16962;48.646;9.026;2022-09-02T19:00:35;17.50;1.00
30150;DHT22;16962;48.646;9.026;2022-09-02T19:03:37;17.50;1.00
30150;DHT22;16962;48.646;9.026;2022-09-02T19:06:29;17.40;1.00
30150;DHT22;16962;48.646;9.026;2022-09-02T19:09:23;17.40;1.00
30150;DHT22;16962;48.646;9.026;2022-09-02T19:12:13;17.30;1.00
30150;DHT22;16962;48.646;9.026;2022-09-02T19:15:07;17.30;1.00
30150;DHT22;16962;48.646;9.026;2022-09-02T19:17:55;17.30;1.00
30150;DHT22;16962;48.646;9.026;2022-09-02T19:20:42;17.30;1.00
30150;DHT22;16962;48.646;9.026;2022-09-02T19:23:33;17.20;1.00
30150;DHT22;16962;48.646;9.026;2022-09-02T19:26:22;17.20;1.00
30150;DHT22;16962;48.646;9.026;2022-09-02T19:29:12;17.20;1.00
30150;DHT22;16962;48.646;9.026;2022-09-02T19:32:01;17.10;1.00
30150;DHT22;16962;48.646;9.026;2022-09-02T19:34:51;17.10;1.00
30150;DHT22;16962;48.646;9.026;2022-09-02T19:37:38;17.10;1.00
30150;DHT22;16962;48.646;9.026;2022-09-02T19:40:31;17.00;1.00
30150;DHT22;16962;48.646;9.026;2022-09-02T19:43:22;17.00;1.00
30150;DHT22;16962;48.646;9.026;2022-09-02T19:46:09;17.00;1.00
30150;DHT22;16962;48.646;9.026;2022-09-02T19:49:17;16.90;1.00
30150;DHT22;16962;48.646;9.026;2022-09-02T19:52:04;16.90;1.00
30150;DHT22;16962;48.646;9.026;2022-09-02T19:54:51;16.80;1.00
30150;DHT22;16962;48.646;9.026;2022-09-02T19:57:39;16.80;1.00
30150;DHT22;16962;48.646;9.026;2022-09-02T20:00:27;16.80;1.00
30150;DHT22;16962;48.646;9.026;2022-09-02T20:03:15;16.70;1.00
30150;DHT22;16962;48.646;9.026;2022-09-02T20:06:02;16.60;1.00
30150;DHT22;16962;48.646;9.026;2022-09-02T20:08:52;16.60;1.00
30150;DHT22;16962;48.646;9.026;2022-09-02T20:11:39;16.50;1.00
30150;DHT22;16962;48.646;9.026;2022-09-02T20:14:27;16.50;1.00
30150;DHT22;16962;48.646;9.026;2022-09-02T20:17:19;16.50;1.00
30150;DHT22;16962;48.646;9.026;2022-09-02T20:20:14;16.40;1.00
30150;DHT22;16962;48.646;9.026;2022-09-02T20:23:02;16.50;1.00
30150;DHT22;16962;48.646;9.026;2022-09-02T20:26:20;16.40;1.00
30150;DHT22;16962;48.646;9.026;2022-09-02T20:48:15;15.90;1.00
30150;DHT22;16962;48.646;9.026;2022-09-02T20:51:19;15.80;1.00
30150;DHT22;16962;48.646;9.026;2022-09-02T20:57:16;15.70;1.00
30150;DHT22;16962;48.646;9.026;2022-09-02T21:00:16;15.60;1.00
30150;DHT22;16962;48.646;9.026;2022-09-02T21:03:08;15.60;1.00
30150;DHT22;16962;48.646;9.026;2022-09-02T21:05:58;15.50;1.00
30150;DHT22;16962;48.646;9.026;2022-09-02T21:09:19;15.50;1.00
30150;DHT22;16962;48.646;9.026;2022-09-02T21:12:32;15.60;1.00
30150;DHT22;16962;48.646;9.026;2022-09-02T21:15:30;15.50;1.00
30150;DHT22;16962;48.646;9.026;2022-09-02T21:18:33;15.40;2.60
30150;DHT22;16962;48.646;9.026;2022-09-02T21:24:51;15.20;12.20